Fort Leonard Wood, MO

6:12 PM CST on December 24, 2014 (GMT -0600)
Waynesville Regional At Forney Field | Change Station
CLOSE
Current Station
Airport
Location: Fort Leonard Wood,
Elevation: 1158 ft
Nearby Weather Stations

Elev 1158 ft 37.74 °N, 92.14 °W | Updated 14 minutes ago

Overcast
Overcast
36 °F
Feels Like 29 °F
N
10
Wind Variable Wind from West

Today
High -- | Low -- °F
--% Chance of Precip.
Yesterday
High -- | Low -- °F
Precip. -- in
7:22 AM 4:54 PM
Waxing Crescent, 12% visible
Pressure 29.85 in
Visibility 10.0 miles
Clouds Overcast 1300 ft
Windchill 29 °F
Dew Point 34 °F
Humidity 94%
Rainfall 0.02 in
Snow Depth Not available.
UV 0 out of 12
Pollen .40 out of 12
Air Quality Not available.
Flu Activity Not available.
METAR KTBN 242358Z AUTO 28009KT 10SM OVC013 02/01 A2981 RMK AO2 UPB2256E2305 SLP106 P0000 60002 T00230014 10028 20019 52021

More Conditions Fewer Conditions

Pressure 29.85 in
Visibility 10.0 miles
Clouds Overcast 1300 ft
Windchill 29 °F
Dew Point 34 °F
Humidity 94%
Rainfall 0.02 in
Snow Depth Not available.
UV 0 out of 12
Pollen .40 out of 12
Air Quality Not available.
Flu Activity Not available.
METAR KTBN 242358Z AUTO 28009KT 10SM OVC013 02/01 A2981 RMK AO2 UPB2256E2305 SLP106 P0000 60002 T00230014 10028 20019 52021

More Conditions Fewer Conditions

10-Day Weather Forecast

Almanac

Astronomy

Dec. 24, 2014 Rise Set
Actual Time
Civil Twilight
Nautical Twilight
Astronomical Twilight
Moon
Length of Visible Light
Length of Day
Tomorrow will be .
, % of the Moon is Illuminated

Today's Extremes

State Highs State Lows

Community

WunderPhotos

Upload Photos

1,780,188 photos uploaded!

WunderBlogs® & News

Nearby

Air Quality

  Air Quality AQ Index Pollutant
Not available.

Snow Depth

Station Depth Elevation

Earthquake Activity

City Distance Mag. Time & Date
Minimum magnitude displayed is 2.5.

Coastal Water Temperatures

Place Temperature

Nearby Weather Stations